Carlisle, Minnesota
Current Conditions -  °F | °C
As of 4:54 PM on Monday 24 Nov 2014 (Local Time) from KFFM Reporting Station
Broken Clouds Broken Clouds  
Wind Chill: -6°   Ceiling: 1200
Heat Index: 12°   Visibility: 10mi
Dew Point:   Wind: 21mph
Humidity: 79%   Direction: 340°NNW
Pressure: 29.88"   Gusts: 36mph
Location:  46.2829°N, 96.0991°W
Report Text: KFFM 242254Z AUTO 34018G31KT 10SM BKN012 M11/M14 A2988 RMK AO2
Loading
Personal Weather Stations






























Interactive Weather Map New forecast layout! Learn more

10-Day Weather Forecast

Advertisements
Track Severe Weather on mobile